sensor_id;sensor_type;location;lat;lon;timestamp;temperature;humidity
13375;DHT22;6756;51.354;15.754;2022-11-28T00:02:22;2.30;99.90
13375;DHT22;6756;51.354;15.754;2022-11-28T00:06:23;2.30;99.90
13375;DHT22;6756;51.354;15.754;2022-11-28T00:10:24;2.30;99.90
13375;DHT22;6756;51.354;15.754;2022-11-28T00:14:25;2.30;99.90
13375;DHT22;6756;51.354;15.754;2022-11-28T00:18:26;2.30;99.90
13375;DHT22;6756;51.354;15.754;2022-11-28T00:22:27;2.20;99.90
13375;DHT22;6756;51.354;15.754;2022-11-28T00:26:34;2.10;99.90
13375;DHT22;6756;51.354;15.754;2022-11-28T00:30:36;2.10;99.90
13375;DHT22;6756;51.354;15.754;2022-11-28T00:34:37;2.00;99.90
13375;DHT22;6756;51.354;15.754;2022-11-28T00:38:38;2.00;99.90
13375;DHT22;6756;51.354;15.754;2022-11-28T00:42:39;2.00;99.90
13375;DHT22;6756;51.354;15.754;2022-11-28T00:46:40;2.00;99.90
13375;DHT22;6756;51.354;15.754;2022-11-28T00:50:41;1.90;99.90
13375;DHT22;6756;51.354;15.754;2022-11-28T00:54:42;1.90;99.90
13375;DHT22;6756;51.354;15.754;2022-11-28T00:58:43;1.90;99.90
13375;DHT22;6756;51.354;15.754;2022-11-28T01:02:43;1.90;99.90
13375;DHT22;6756;51.354;15.754;2022-11-28T01:06:47;1.90;99.90
13375;DHT22;6756;51.354;15.754;2022-11-28T01:10:48;1.80;99.90
13375;DHT22;6756;51.354;15.754;2022-11-28T01:14:48;1.90;99.90
13375;DHT22;6756;51.354;15.754;2022-11-28T01:18:50;1.90;99.90
13375;DHT22;6756;51.354;15.754;2022-11-28T01:22:51;2.00;99.90
13375;DHT22;6756;51.354;15.754;2022-11-28T01:26:52;2.10;99.90
13375;DHT22;6756;51.354;15.754;2022-11-28T01:30:52;2.10;99.90
13375;DHT22;6756;51.354;15.754;2022-11-28T01:34:53;2.10;99.90
13375;DHT22;6756;51.354;15.754;2022-11-28T01:38:54;2.00;99.90
13375;DHT22;6756;51.354;15.754;2022-11-28T01:42:55;1.90;99.90
13375;DHT22;6756;51.354;15.754;2022-11-28T01:46:56;1.90;99.90
13375;DHT22;6756;51.354;15.754;2022-11-28T01:51:01;2.00;99.90
13375;DHT22;6756;51.354;15.754;2022-11-28T01:55:05;2.10;99.90
13375;DHT22;6756;51.354;15.754;2022-11-28T01:59:08;2.10;99.90
13375;DHT22;6756;51.354;15.754;2022-11-28T02:03:24;2.20;99.90
13375;DHT22;6756;51.354;15.754;2022-11-28T02:07:25;2.30;99.90
13375;DHT22;6756;51.354;15.754;2022-11-28T02:12:02;2.40;99.90
13375;DHT22;6756;51.354;15.754;2022-11-28T02:25:06;2.50;99.90
13375;DHT22;6756;51.354;15.754;2022-11-28T02:34:15;2.50;99.90
13375;DHT22;6756;51.354;15.754;2022-11-28T02:38:24;2.50;99.90
13375;DHT22;6756;51.354;15.754;2022-11-28T02:46:51;2.60;99.90
13375;DHT22;6756;51.354;15.754;2022-11-28T02:55:19;2.60;99.90
13375;DHT22;6756;51.354;15.754;2022-11-28T02:59:45;2.50;99.90
13375;DHT22;6756;51.354;15.754;2022-11-28T03:08:35;2.50;99.90
13375;DHT22;6756;51.354;15.754;2022-11-28T03:22:18;2.50;99.90
13375;DHT22;6756;51.354;15.754;2022-11-28T03:26:30;2.50;99.90
13375;DHT22;6756;51.354;15.754;2022-11-28T03:30:41;2.50;99.90
13375;DHT22;6756;51.354;15.754;2022-11-28T03:34:44;2.50;99.90
13375;DHT22;6756;51.354;15.754;2022-11-28T03:38:53;2.40;99.90
13375;DHT22;6756;51.354;15.754;2022-11-28T03:43:07;2.40;99.90
13375;DHT22;6756;51.354;15.754;2022-11-28T03:47:10;2.40;99.90
13375;DHT22;6756;51.354;15.754;2022-11-28T03:51:12;2.40;99.90
13375;DHT22;6756;51.354;15.754;2022-11-28T03:55:22;2.40;99.90
13375;DHT22;6756;51.354;15.754;2022-11-28T03:59:45;2.40;99.90
13375;DHT22;6756;51.354;15.754;2022-11-28T04:08:23;2.40;99.90
13375;DHT22;6756;51.354;15.754;2022-11-28T04:12:38;2.30;99.90
13375;DHT22;6756;51.354;15.754;2022-11-28T04:16:53;2.20;99.90
13375;DHT22;6756;51.354;15.754;2022-11-28T04:21:21;2.20;99.90
13375;DHT22;6756;51.354;15.754;2022-11-28T04:25:25;2.20;99.90
13375;DHT22;6756;51.354;15.754;2022-11-28T04:29:31;2.20;99.90
13375;DHT22;6756;51.354;15.754;2022-11-28T04:33:37;2.10;99.90
13375;DHT22;6756;51.354;15.754;2022-11-28T04:37:40;2.00;99.90
13375;DHT22;6756;51.354;15.754;2022-11-28T04:41:53;1.90;99.90
13375;DHT22;6756;51.354;15.754;2022-11-28T04:46:03;1.80;99.90
13375;DHT22;6756;51.354;15.754;2022-11-28T04:50:05;1.80;99.90
13375;DHT22;6756;51.354;15.754;2022-11-28T04:54:27;1.70;99.90
13375;DHT22;6756;51.354;15.754;2022-11-28T04:58:39;1.60;99.90
13375;DHT22;6756;51.354;15.754;2022-11-28T05:02:44;1.60;99.90
13375;DHT22;6756;51.354;15.754;2022-11-28T05:06:45;1.60;99.90
13375;DHT22;6756;51.354;15.754;2022-11-28T05:10:46;1.60;99.90
13375;DHT22;6756;51.354;15.754;2022-11-28T05:14:47;1.50;99.90
13375;DHT22;6756;51.354;15.754;2022-11-28T05:18:48;1.50;99.90
13375;DHT22;6756;51.354;15.754;2022-11-28T05:22:49;1.40;99.90
13375;DHT22;6756;51.354;15.754;2022-11-28T05:26:49;1.30;99.90
13375;DHT22;6756;51.354;15.754;2022-11-28T05:30:57;1.30;99.90
13375;DHT22;6756;51.354;15.754;2022-11-28T05:34:58;1.20;99.90
13375;DHT22;6756;51.354;15.754;2022-11-28T05:38:59;1.20;99.90
13375;DHT22;6756;51.354;15.754;2022-11-28T05:43:00;1.20;99.90
13375;DHT22;6756;51.354;15.754;2022-11-28T05:47:01;1.10;99.90
13375;DHT22;6756;51.354;15.754;2022-11-28T05:51:03;1.10;99.90
13375;DHT22;6756;51.354;15.754;2022-11-28T05:55:05;1.10;99.90
13375;DHT22;6756;51.354;15.754;2022-11-28T05:59:05;1.10;99.90
13375;DHT22;6756;51.354;15.754;2022-11-28T06:03:06;1.00;99.90
13375;DHT22;6756;51.354;15.754;2022-11-28T06:07:07;1.00;99.90
13375;DHT22;6756;51.354;15.754;2022-11-28T06:11:08;0.90;99.90
13375;DHT22;6756;51.354;15.754;2022-11-28T06:15:09;0.90;99.90
13375;DHT22;6756;51.354;15.754;2022-11-28T06:19:11;0.90;99.90
13375;DHT22;6756;51.354;15.754;2022-11-28T06:23:12;0.90;99.90
13375;DHT22;6756;51.354;15.754;2022-11-28T06:27:13;0.90;99.90
13375;DHT22;6756;51.354;15.754;2022-11-28T06:31:19;0.90;99.90
13375;DHT22;6756;51.354;15.754;2022-11-28T06:35:20;1.00;99.90
13375;DHT22;6756;51.354;15.754;2022-11-28T06:39:22;1.10;99.90
13375;DHT22;6756;51.354;15.754;2022-11-28T06:43:23;1.10;99.90
13375;DHT22;6756;51.354;15.754;2022-11-28T06:47:24;1.10;99.90
13375;DHT22;6756;51.354;15.754;2022-11-28T06:51:25;1.20;99.90
13375;DHT22;6756;51.354;15.754;2022-11-28T06:55:28;1.20;99.90
13375;DHT22;6756;51.354;15.754;2022-11-28T06:59:29;1.20;99.90
13375;DHT22;6756;51.354;15.754;2022-11-28T07:03:30;1.20;99.90
13375;DHT22;6756;51.354;15.754;2022-11-28T07:07:31;1.30;99.90
13375;DHT22;6756;51.354;15.754;2022-11-28T07:11:31;1.30;99.90
13375;DHT22;6756;51.354;15.754;2022-11-28T07:15:32;1.40;99.90
13375;DHT22;6756;51.354;15.754;2022-11-28T07:19:33;1.40;99.90
13375;DHT22;6756;51.354;15.754;2022-11-28T07:23:34;1.50;99.90
13375;DHT22;6756;51.354;15.754;2022-11-28T07:27:35;1.60;99.90
13375;DHT22;6756;51.354;15.754;2022-11-28T07:31:36;1.60;99.90
13375;DHT22;6756;51.354;15.754;2022-11-28T07:35:37;1.70;99.90
13375;DHT22;6756;51.354;15.754;2022-11-28T07:39:38;1.80;99.90
13375;DHT22;6756;51.354;15.754;2022-11-28T07:43:39;1.80;99.90
13375;DHT22;6756;51.354;15.754;2022-11-28T07:47:40;1.90;99.90
13375;DHT22;6756;51.354;15.754;2022-11-28T07:51:41;1.90;99.90
13375;DHT22;6756;51.354;15.754;2022-11-28T07:55:42;2.00;99.90
13375;DHT22;6756;51.354;15.754;2022-11-28T07:59:43;2.10;99.90
13375;DHT22;6756;51.354;15.754;2022-11-28T08:03:44;2.10;99.90
13375;DHT22;6756;51.354;15.754;2022-11-28T08:07:48;2.20;99.90
13375;DHT22;6756;51.354;15.754;2022-11-28T08:11:49;2.20;99.90
13375;DHT22;6756;51.354;15.754;2022-11-28T08:15:52;2.30;99.90
13375;DHT22;6756;51.354;15.754;2022-11-28T08:19:53;2.40;99.90
13375;DHT22;6756;51.354;15.754;2022-11-28T08:23:57;2.50;99.90
13375;DHT22;6756;51.354;15.754;2022-11-28T08:27:58;2.60;99.90
13375;DHT22;6756;51.354;15.754;2022-11-28T08:31:59;2.70;99.90
13375;DHT22;6756;51.354;15.754;2022-11-28T08:35:59;2.80;99.90
13375;DHT22;6756;51.354;15.754;2022-11-28T08:40:02;2.90;99.90
13375;DHT22;6756;51.354;15.754;2022-11-28T08:44:04;2.90;99.90
13375;DHT22;6756;51.354;15.754;2022-11-28T08:48:04;3.00;99.90
13375;DHT22;6756;51.354;15.754;2022-11-28T08:52:05;3.10;99.90
13375;DHT22;6756;51.354;15.754;2022-11-28T08:56:06;3.30;99.90
13375;DHT22;6756;51.354;15.754;2022-11-28T09:00:08;3.30;99.90
13375;DHT22;6756;51.354;15.754;2022-11-28T09:04:08;3.30;99.90
13375;DHT22;6756;51.354;15.754;2022-11-28T09:08:09;3.40;99.90
13375;DHT22;6756;51.354;15.754;2022-11-28T09:12:10;3.40;99.90
13375;DHT22;6756;51.354;15.754;2022-11-28T09:16:12;3.50;99.90
13375;DHT22;6756;51.354;15.754;2022-11-28T09:20:13;3.50;99.90
13375;DHT22;6756;51.354;15.754;2022-11-28T09:24:16;3.50;99.90
13375;DHT22;6756;51.354;15.754;2022-11-28T09:28:16;3.50;99.90
13375;DHT22;6756;51.354;15.754;2022-11-28T09:32:17;3.50;99.90
13375;DHT22;6756;51.354;15.754;2022-11-28T09:36:20;3.50;99.90
13375;DHT22;6756;51.354;15.754;2022-11-28T09:40:39;3.60;99.90
13375;DHT22;6756;51.354;15.754;2022-11-28T09:44:48;3.70;99.90
13375;DHT22;6756;51.354;15.754;2022-11-28T09:48:54;3.80;99.90
13375;DHT22;6756;51.354;15.754;2022-11-28T09:56:59;3.90;99.90
13375;DHT22;6756;51.354;15.754;2022-11-28T10:05:52;4.10;99.90
13375;DHT22;6756;51.354;15.754;2022-11-28T10:18:50;4.40;99.90
13375;DHT22;6756;51.354;15.754;2022-11-28T10:26:58;4.60;99.90
13375;DHT22;6756;51.354;15.754;2022-11-28T10:39:27;4.70;99.90
13375;DHT22;6756;51.354;15.754;2022-11-28T10:52:30;5.10;99.90
13375;DHT22;6756;51.354;15.754;2022-11-28T11:00:54;5.30;99.90
13375;DHT22;6756;51.354;15.754;2022-11-28T11:04:55;5.40;99.90
13375;DHT22;6756;51.354;15.754;2022-11-28T11:08:56;5.60;99.90
13375;DHT22;6756;51.354;15.754;2022-11-28T11:12:57;5.60;99.90
13375;DHT22;6756;51.354;15.754;2022-11-28T11:16:59;5.50;99.90
13375;DHT22;6756;51.354;15.754;2022-11-28T11:21:38;5.40;99.90
13375;DHT22;6756;51.354;15.754;2022-11-28T11:25:56;5.30;99.90
13375;DHT22;6756;51.354;15.754;2022-11-28T11:29:58;5.30;99.90
13375;DHT22;6756;51.354;15.754;2022-11-28T11:34:11;5.40;99.90
13375;DHT22;6756;51.354;15.754;2022-11-28T11:42:22;5.50;99.90
13375;DHT22;6756;51.354;15.754;2022-11-28T11:46:24;5.60;99.90
13375;DHT22;6756;51.354;15.754;2022-11-28T11:50:28;5.70;99.90
13375;DHT22;6756;51.354;15.754;2022-11-28T11:54:30;5.80;99.90
13375;DHT22;6756;51.354;15.754;2022-11-28T11:58:51;5.80;99.90
13375;DHT22;6756;51.354;15.754;2022-11-28T12:02:57;5.90;99.90
13375;DHT22;6756;51.354;15.754;2022-11-28T12:07:01;5.90;99.90
13375;DHT22;6756;51.354;15.754;2022-11-28T12:11:22;5.90;99.90
13375;DHT22;6756;51.354;15.754;2022-11-28T12:15:37;5.90;99.90
13375;DHT22;6756;51.354;15.754;2022-11-28T12:28:14;6.00;99.90
13375;DHT22;6756;51.354;15.754;2022-11-28T12:50:37;6.00;99.90
13375;DHT22;6756;51.354;15.754;2022-11-28T12:54:56;6.10;99.90
13375;DHT22;6756;51.354;15.754;2022-11-28T13:03:50;6.10;99.90
13375;DHT22;6756;51.354;15.754;2022-11-28T13:21:54;6.20;98.20
13375;DHT22;6756;51.354;15.754;2022-11-28T13:26:25;6.20;99.30
13375;DHT22;6756;51.354;15.754;2022-11-28T13:30:39;6.20;99.90
13375;DHT22;6756;51.354;15.754;2022-11-28T13:34:41;6.10;99.90
13375;DHT22;6756;51.354;15.754;2022-11-28T13:38:55;5.90;99.90
13375;DHT22;6756;51.354;15.754;2022-11-28T13:51:24;5.30;99.90
13375;DHT22;6756;51.354;15.754;2022-11-28T13:55:39;5.10;99.90
13375;DHT22;6756;51.354;15.754;2022-11-28T13:59:59;4.90;99.90
13375;DHT22;6756;51.354;15.754;2022-11-28T14:04:06;4.80;99.90
13375;DHT22;6756;51.354;15.754;2022-11-28T14:08:42;4.60;99.90
13375;DHT22;6756;51.354;15.754;2022-11-28T14:13:15;4.40;99.90
13375;DHT22;6756;51.354;15.754;2022-11-28T14:25:42;3.90;99.90
13375;DHT22;6756;51.354;15.754;2022-11-28T14:29:47;3.80;99.90
13375;DHT22;6756;51.354;15.754;2022-11-28T14:33:59;3.70;99.90
13375;DHT22;6756;51.354;15.754;2022-11-28T14:38:00;3.50;99.90
13375;DHT22;6756;51.354;15.754;2022-11-28T14:54:29;2.80;99.90
13375;DHT22;6756;51.354;15.754;2022-11-28T14:58:31;2.70;99.90
13375;DHT22;6756;51.354;15.754;2022-11-28T15:06:43;2.50;99.90
13375;DHT22;6756;51.354;15.754;2022-11-28T15:15:16;2.20;99.90
13375;DHT22;6756;51.354;15.754;2022-11-28T15:23:37;2.00;99.90
13375;DHT22;6756;51.354;15.754;2022-11-28T15:27:38;1.90;99.90
13375;DHT22;6756;51.354;15.754;2022-11-28T15:31:41;1.80;99.90
13375;DHT22;6756;51.354;15.754;2022-11-28T15:39:58;1.80;99.90
13375;DHT22;6756;51.354;15.754;2022-11-28T15:44:01;1.70;99.90
13375;DHT22;6756;51.354;15.754;2022-11-28T15:48:03;1.70;99.90
13375;DHT22;6756;51.354;15.754;2022-11-28T15:52:13;1.70;99.90
13375;DHT22;6756;51.354;15.754;2022-11-28T15:56:15;1.70;99.90
13375;DHT22;6756;51.354;15.754;2022-11-28T16:00:18;1.70;99.90
13375;DHT22;6756;51.354;15.754;2022-11-28T16:04:19;1.80;99.90
13375;DHT22;6756;51.354;15.754;2022-11-28T16:08:30;1.80;99.90
13375;DHT22;6756;51.354;15.754;2022-11-28T16:12:32;1.80;99.90
13375;DHT22;6756;51.354;15.754;2022-11-28T16:16:34;1.80;99.90
13375;DHT22;6756;51.354;15.754;2022-11-28T16:20:36;1.90;99.90
13375;DHT22;6756;51.354;15.754;2022-11-28T16:24:52;1.80;99.90
13375;DHT22;6756;51.354;15.754;2022-11-28T16:33:34;1.80;99.90
13375;DHT22;6756;51.354;15.754;2022-11-28T16:37:35;1.90;99.90
13375;DHT22;6756;51.354;15.754;2022-11-28T16:41:39;1.80;99.90
13375;DHT22;6756;51.354;15.754;2022-11-28T16:45:40;1.90;99.90
13375;DHT22;6756;51.354;15.754;2022-11-28T16:49:58;1.90;99.90
13375;DHT22;6756;51.354;15.754;2022-11-28T16:58:22;2.10;99.90
13375;DHT22;6756;51.354;15.754;2022-11-28T17:02:24;2.20;99.90
13375;DHT22;6756;51.354;15.754;2022-11-28T17:06:29;2.20;99.90
13375;DHT22;6756;51.354;15.754;2022-11-28T17:10:33;2.30;99.90
13375;DHT22;6756;51.354;15.754;2022-11-28T17:14:34;2.30;99.90
13375;DHT22;6756;51.354;15.754;2022-11-28T17:18:37;2.40;99.90
13375;DHT22;6756;51.354;15.754;2022-11-28T17:22:43;2.40;99.90
13375;DHT22;6756;51.354;15.754;2022-11-28T17:26:45;2.40;99.90
13375;DHT22;6756;51.354;15.754;2022-11-28T17:30:46;2.50;99.90
13375;DHT22;6756;51.354;15.754;2022-11-28T17:34:47;2.40;99.90
13375;DHT22;6756;51.354;15.754;2022-11-28T17:38:48;2.40;99.90
13375;DHT22;6756;51.354;15.754;2022-11-28T17:42:49;2.40;99.90
13375;DHT22;6756;51.354;15.754;2022-11-28T17:46:51;2.40;99.90
13375;DHT22;6756;51.354;15.754;2022-11-28T17:50:52;2.40;99.90
13375;DHT22;6756;51.354;15.754;2022-11-28T17:54:53;2.40;99.90
13375;DHT22;6756;51.354;15.754;2022-11-28T17:58:59;2.30;99.90
13375;DHT22;6756;51.354;15.754;2022-11-28T18:03:00;2.30;99.90
13375;DHT22;6756;51.354;15.754;2022-11-28T18:07:01;2.20;99.90
13375;DHT22;6756;51.354;15.754;2022-11-28T18:11:07;2.20;99.90
13375;DHT22;6756;51.354;15.754;2022-11-28T18:15:09;2.20;99.90
13375;DHT22;6756;51.354;15.754;2022-11-28T18:19:10;2.20;99.90
13375;DHT22;6756;51.354;15.754;2022-11-28T18:23:11;2.10;99.90
13375;DHT22;6756;51.354;15.754;2022-11-28T18:27:12;2.10;99.90
13375;DHT22;6756;51.354;15.754;2022-11-28T18:31:24;2.10;99.90
13375;DHT22;6756;51.354;15.754;2022-11-28T18:35:25;2.10;99.90
13375;DHT22;6756;51.354;15.754;2022-11-28T18:39:26;2.00;99.90
13375;DHT22;6756;51.354;15.754;2022-11-28T18:43:31;1.90;99.90
13375;DHT22;6756;51.354;15.754;2022-11-28T18:47:33;1.70;99.90
13375;DHT22;6756;51.354;15.754;2022-11-28T18:51:34;1.70;99.90
13375;DHT22;6756;51.354;15.754;2022-11-28T18:55:36;1.60;99.90
13375;DHT22;6756;51.354;15.754;2022-11-28T18:59:37;1.60;99.90
13375;DHT22;6756;51.354;15.754;2022-11-28T19:03:39;1.50;99.90
13375;DHT22;6756;51.354;15.754;2022-11-28T19:07:40;1.50;99.90
13375;DHT22;6756;51.354;15.754;2022-11-28T19:11:41;1.40;99.90
13375;DHT22;6756;51.354;15.754;2022-11-28T19:15:42;1.40;99.90
13375;DHT22;6756;51.354;15.754;2022-11-28T19:19:43;1.30;99.90
13375;DHT22;6756;51.354;15.754;2022-11-28T19:23:45;1.30;99.90
13375;DHT22;6756;51.354;15.754;2022-11-28T19:27:49;1.30;99.90
13375;DHT22;6756;51.354;15.754;2022-11-28T19:31:50;1.20;99.90
13375;DHT22;6756;51.354;15.754;2022-11-28T19:35:51;1.10;99.90
13375;DHT22;6756;51.354;15.754;2022-11-28T19:39:52;1.00;99.90
13375;DHT22;6756;51.354;15.754;2022-11-28T19:43:53;1.00;99.90
13375;DHT22;6756;51.354;15.754;2022-11-28T19:47:54;1.00;99.90
13375;DHT22;6756;51.354;15.754;2022-11-28T19:51:55;1.00;99.90
13375;DHT22;6756;51.354;15.754;2022-11-28T19:56:05;0.90;99.90
13375;DHT22;6756;51.354;15.754;2022-11-28T20:00:07;0.90;99.90
13375;DHT22;6756;51.354;15.754;2022-11-28T20:04:08;0.90;99.90
13375;DHT22;6756;51.354;15.754;2022-11-28T20:08:09;0.90;99.90
13375;DHT22;6756;51.354;15.754;2022-11-28T20:12:10;0.80;99.90
13375;DHT22;6756;51.354;15.754;2022-11-28T20:16:12;0.80;99.90
13375;DHT22;6756;51.354;15.754;2022-11-28T20:20:13;0.80;99.90
13375;DHT22;6756;51.354;15.754;2022-11-28T20:24:14;0.80;99.90
13375;DHT22;6756;51.354;15.754;2022-11-28T20:28:15;0.90;99.90
13375;DHT22;6756;51.354;15.754;2022-11-28T20:32:16;0.90;99.90
13375;DHT22;6756;51.354;15.754;2022-11-28T20:36:20;0.90;99.90
13375;DHT22;6756;51.354;15.754;2022-11-28T20:40:21;0.90;99.90
13375;DHT22;6756;51.354;15.754;2022-11-28T20:44:22;0.90;99.90
13375;DHT22;6756;51.354;15.754;2022-11-28T20:48:23;0.90;99.90
13375;DHT22;6756;51.354;15.754;2022-11-28T20:52:24;1.00;99.90
13375;DHT22;6756;51.354;15.754;2022-11-28T20:56:27;1.00;99.90
13375;DHT22;6756;51.354;15.754;2022-11-28T21:00:31;1.00;99.90
13375;DHT22;6756;51.354;15.754;2022-11-28T21:04:32;1.00;99.90
13375;DHT22;6756;51.354;15.754;2022-11-28T21:08:33;1.00;99.90
13375;DHT22;6756;51.354;15.754;2022-11-28T21:12:34;1.00;99.90
13375;DHT22;6756;51.354;15.754;2022-11-28T21:16:34;1.10;99.90
13375;DHT22;6756;51.354;15.754;2022-11-28T21:20:43;1.10;99.90
13375;DHT22;6756;51.354;15.754;2022-11-28T21:24:45;1.10;99.90
13375;DHT22;6756;51.354;15.754;2022-11-28T21:28:52;1.00;99.90
13375;DHT22;6756;51.354;15.754;2022-11-28T21:32:53;1.00;99.90
13375;DHT22;6756;51.354;15.754;2022-11-28T21:36:54;1.10;99.90
13375;DHT22;6756;51.354;15.754;2022-11-28T21:40:55;1.00;99.90
13375;DHT22;6756;51.354;15.754;2022-11-28T21:44:56;1.10;99.90
13375;DHT22;6756;51.354;15.754;2022-11-28T21:48:57;1.10;99.90
13375;DHT22;6756;51.354;15.754;2022-11-28T21:52:58;1.10;99.90
13375;DHT22;6756;51.354;15.754;2022-11-28T21:56:58;1.10;99.90
13375;DHT22;6756;51.354;15.754;2022-11-28T22:01:01;1.10;99.90
13375;DHT22;6756;51.354;15.754;2022-11-28T22:05:03;1.00;99.90
13375;DHT22;6756;51.354;15.754;2022-11-28T22:09:04;1.00;99.90
13375;DHT22;6756;51.354;15.754;2022-11-28T22:13:05;1.00;99.90
13375;DHT22;6756;51.354;15.754;2022-11-28T22:17:05;1.00;99.90
13375;DHT22;6756;51.354;15.754;2022-11-28T22:21:07;1.10;99.90
13375;DHT22;6756;51.354;15.754;2022-11-28T22:25:09;1.10;99.90
13375;DHT22;6756;51.354;15.754;2022-11-28T22:29:10;1.10;99.90
13375;DHT22;6756;51.354;15.754;2022-11-28T22:33:10;1.10;99.90
13375;DHT22;6756;51.354;15.754;2022-11-28T22:37:11;1.10;99.90
13375;DHT22;6756;51.354;15.754;2022-11-28T22:41:18;1.10;99.90
13375;DHT22;6756;51.354;15.754;2022-11-28T22:45:19;1.10;99.90
13375;DHT22;6756;51.354;15.754;2022-11-28T22:49:20;1.10;99.90
13375;DHT22;6756;51.354;15.754;2022-11-28T22:53:21;1.10;99.90
13375;DHT22;6756;51.354;15.754;2022-11-28T22:57:21;1.10;99.90
13375;DHT22;6756;51.354;15.754;2022-11-28T23:01:29;1.10;99.90
13375;DHT22;6756;51.354;15.754;2022-11-28T23:05:30;1.10;99.90
13375;DHT22;6756;51.354;15.754;2022-11-28T23:09:31;1.10;99.90
13375;DHT22;6756;51.354;15.754;2022-11-28T23:13:33;1.20;99.90
13375;DHT22;6756;51.354;15.754;2022-11-28T23:17:35;1.20;99.90
13375;DHT22;6756;51.354;15.754;2022-11-28T23:21:37;1.20;99.90
13375;DHT22;6756;51.354;15.754;2022-11-28T23:25:38;1.20;99.90
13375;DHT22;6756;51.354;15.754;2022-11-28T23:29:39;1.20;99.90
13375;DHT22;6756;51.354;15.754;2022-11-28T23:33:40;1.10;99.90
13375;DHT22;6756;51.354;15.754;2022-11-28T23:37:41;1.20;99.90
13375;DHT22;6756;51.354;15.754;2022-11-28T23:41:42;1.20;99.90
13375;DHT22;6756;51.354;15.754;2022-11-28T23:45:43;1.20;99.90
13375;DHT22;6756;51.354;15.754;2022-11-28T23:49:44;1.20;99.90
13375;DHT22;6756;51.354;15.754;2022-11-28T23:53:45;1.20;99.90
13375;DHT22;6756;51.354;15.754;2022-11-28T23:57:46;1.20;99.90
